Terminal Aerodrome Forecast
Issued by NWS

Home | Current Version | Previous Version | Text Only | Print | Product List | Glossary On
Versions: 1 2 3 4 5 6 7 8 9 10 11 12 13
292
FTUS46 KMTR 201133
TAFSTS
TAF
KSTS 201133Z 2012/2112 24003KT P6SM -RA BKN015 OVC030
     FM201400 20003KT 5SM RA BR BKN020 OVC040 WS020/21025KT
     FM202000 19005KT 6SM -RA BR SCT012 BKN025 OVC040
     FM210000 21003KT P6SM FEW012 SCT100
     FM210500 21003KT 3/4SM BR VV002
     FM210700 VRB03KT 1/4SM FG VV001=

USA.gov is the U.S. government's official web portal to all federal, state and local government web resources and services.